createdAt,value
2019-02-10T00:00:29.025Z,983.49
2019-02-10T00:03:59.156Z,983.44
2019-02-10T00:07:29.391Z,983.34
2019-02-10T00:10:59.435Z,983.4
2019-02-10T00:14:29.368Z,983.47
2019-02-10T00:18:01.206Z,983.44
2019-02-10T00:21:31.305Z,983.61
2019-02-10T00:25:01.412Z,983.48
2019-02-10T00:28:31.582Z,983.36
2019-02-10T00:32:01.818Z,983.29
2019-02-10T00:35:32.016Z,983.19
2019-02-10T00:39:03.562Z,983.18
2019-02-10T00:42:33.692Z,983.1
2019-02-10T00:46:03.800Z,983.2
2019-02-10T00:49:33.908Z,983.17
2019-02-10T00:53:04.056Z,983.25
2019-02-10T00:56:34.174Z,983
2019-02-10T01:00:04.591Z,982.86
2019-02-10T01:03:34.733Z,982.9
2019-02-10T01:07:04.877Z,982.86
2019-02-10T01:10:34.965Z,982.79
2019-02-10T01:14:05.184Z,982.68
2019-02-10T01:17:35.251Z,982.54
2019-02-10T01:21:06.500Z,982.57
2019-02-10T01:24:36.618Z,982.41
2019-02-10T01:28:07.015Z,982.23
2019-02-10T01:31:37.178Z,982.08
2019-02-10T01:35:07.573Z,982.2
2019-02-10T01:38:37.709Z,982.5
2019-02-10T01:42:07.917Z,982.19
2019-02-10T01:45:37.936Z,982.25
2019-02-10T01:49:08.103Z,982.28
2019-02-10T01:52:38.262Z,982.3
2019-02-10T01:56:08.370Z,982.26
2019-02-10T01:59:38.587Z,982.28
2019-02-10T02:00:15.207Z,982.25
2019-02-10T02:03:45.315Z,982.09
2019-02-10T02:07:15.523Z,982.04
2019-02-10T02:10:45.602Z,982.03
2019-02-10T02:14:15.709Z,982.2
2019-02-10T02:17:45.877Z,981.96
2019-02-10T02:21:16.938Z,981.91
2019-02-10T02:24:46.968Z,982.03
2019-02-10T02:28:17.126Z,982.16
2019-02-10T02:31:47.287Z,981.91
2019-02-10T02:35:17.337Z,981.75
2019-02-10T02:38:47.468Z,981.84
2019-02-10T02:42:17.582Z,981.81
2019-02-10T02:45:47.709Z,981.6
2019-02-10T02:49:17.926Z,981.45
2019-02-10T02:52:48.074Z,981.2
2019-02-10T02:56:18.111Z,981.23
2019-02-10T02:59:48.090Z,981.01
2019-02-10T03:03:18.207Z,980.93
2019-02-10T03:06:48.815Z,981.24
2019-02-10T03:10:18.892Z,981.22
2019-02-10T03:13:48.991Z,981.35
2019-02-10T03:17:19.120Z,981.48
2019-02-10T03:20:49.241Z,981.37
2019-02-10T03:24:20.185Z,981.54
2019-02-10T03:27:50.343Z,981.51
2019-02-10T03:31:20.482Z,981.59
2019-02-10T03:34:50.569Z,981.59
2019-02-10T03:38:20.647Z,981.36
2019-02-10T03:41:50.874Z,981.31
2019-02-10T03:45:20.932Z,981.45
2019-02-10T03:48:51.071Z,981.75
2019-02-10T03:52:21.228Z,981.2
2019-02-10T03:55:51.356Z,981.22
2019-02-10T03:59:21.484Z,981.47
2019-02-10T04:00:15.888Z,981.52
2019-02-10T04:03:45.993Z,981.8
2019-02-10T04:07:16.040Z,981.95
2019-02-10T04:10:46.187Z,982.16
2019-02-10T04:14:16.255Z,982.33
2019-02-10T04:17:46.363Z,982.51
2019-02-10T04:21:16.492Z,982.79
2019-02-10T04:24:47.531Z,982.86
2019-02-10T04:28:17.538Z,982.85
2019-02-10T04:31:47.649Z,982.87
2019-02-10T04:35:17.721Z,982.9
2019-02-10T04:38:47.854Z,983.1
2019-02-10T04:42:17.908Z,983.3
2019-02-10T04:45:48.136Z,983.22
2019-02-10T04:49:18.314Z,983.29
2019-02-10T04:52:48.473Z,982.99
2019-02-10T04:56:18.618Z,982.69
2019-02-10T04:59:48.858Z,982.43
2019-02-10T05:03:18.916Z,982.37
2019-02-10T05:06:49.094Z,982.09
2019-02-10T05:10:19.171Z,982.03
2019-02-10T05:13:49.211Z,982.22
2019-02-10T05:17:19.247Z,982.24
2019-02-10T05:20:49.256Z,982.16
2019-02-10T05:24:19.484Z,981.93
2019-02-10T05:27:50.664Z,981.45
2019-02-10T05:31:20.851Z,981.75
2019-02-10T05:34:50.938Z,981.94
2019-02-10T05:38:21.026Z,981.92
2019-02-10T05:41:51.194Z,981.83
2019-02-10T05:45:21.412Z,982.11
2019-02-10T05:48:51.482Z,982.54
2019-02-10T05:52:21.507Z,982.88
2019-02-10T05:55:51.605Z,982.64
2019-02-10T05:59:21.698Z,983
2019-02-10T06:00:16.123Z,983.1
2019-02-10T06:03:46.262Z,983.66
2019-02-10T06:07:16.576Z,984.05
2019-02-10T06:10:46.937Z,984.59
2019-02-10T06:14:17.135Z,985.06
2019-02-10T06:17:47.303Z,985.52
2019-02-10T06:21:17.361Z,986.03
2019-02-10T06:24:47.558Z,986.55
2019-02-10T06:28:17.739Z,986.74
2019-02-10T06:31:47.924Z,987.3
2019-02-10T06:35:18.116Z,987.53
2019-02-10T06:38:48.261Z,987.93
2019-02-10T06:42:18.290Z,988.47
2019-02-10T06:45:48.426Z,988.52
2019-02-10T06:49:18.524Z,988.29
2019-02-10T06:52:48.662Z,988.76
2019-02-10T06:56:18.851Z,989.09
2019-02-10T06:59:54.129Z,989.76
2019-02-10T07:03:32.096Z,990.22
2019-02-10T07:07:02.244Z,990.55
2019-02-10T07:10:32.383Z,990.9
2019-02-10T07:14:10.054Z,991.26
2019-02-10T07:20:33.057Z,991.67
2019-02-10T07:24:44.144Z,992.08
2019-02-10T07:29:00.353Z,992.45
2019-02-10T07:32:35.460Z,992.84
2019-02-10T07:38:42.267Z,993.31
2019-02-10T07:42:22.493Z,993.16
2019-02-10T07:46:03.074Z,993.14
2019-02-10T07:50:13.740Z,993.28
2019-02-10T07:58:28.596Z,992.54
2019-02-10T08:01:53.594Z,993.37
2019-02-10T08:05:34.502Z,993.65
2019-02-10T08:13:18.088Z,993.87
2019-02-10T08:16:59.486Z,994.26
2019-02-10T08:20:45.924Z,993.97
2019-02-10T08:26:48.120Z,995.2
2019-02-10T08:30:28.040Z,994.95
2019-02-10T08:36:33.026Z,994.59
2019-02-10T08:40:15.753Z,995.29
2019-02-10T08:43:53.221Z,995.22
2019-02-10T08:47:40.989Z,996.24
2019-02-10T08:53:37.105Z,996.06
2019-02-10T08:57:07.184Z,995.35
2019-02-10T09:00:37.394Z,995.6
2019-02-10T09:04:07.500Z,995.81
2019-02-10T09:07:37.625Z,996.86
2019-02-10T09:11:07.752Z,997.17
2019-02-10T09:14:37.878Z,998.04
2019-02-10T09:18:08.044Z,997.84
2019-02-10T09:21:38.242Z,998.28
2019-02-10T09:25:08.799Z,999.06
2019-02-10T09:28:38.937Z,998.9
2019-02-10T09:32:10.155Z,999.72
2019-02-10T09:35:40.243Z,1000.49
2019-02-10T09:39:11.161Z,1000.17
2019-02-10T09:42:41.419Z,1000.23
2019-02-10T09:46:11.537Z,1000.08
2019-02-10T09:49:41.685Z,1001.42
2019-02-10T09:53:11.684Z,1002.23
2019-02-10T09:56:41.852Z,1002.83
2019-02-10T10:00:16.202Z,1003.48
2019-02-10T10:03:46.308Z,1003.4
2019-02-10T10:07:16.406Z,1003.81
2019-02-10T10:10:46.555Z,1005.23
2019-02-10T10:14:16.673Z,1006.58
2019-02-10T10:17:46.782Z,1005.66
2019-02-10T10:21:16.879Z,1006.33
2019-02-10T10:24:50.509Z,1006.57
2019-02-10T10:28:20.978Z,1008.37
2019-02-10T10:31:51.074Z,1008.39
2019-02-10T10:35:22.073Z,1009.03
2019-02-10T10:38:52.220Z,1009.74
2019-02-10T10:42:22.309Z,1011.3
2019-02-10T10:45:52.541Z,1012.1
2019-02-10T10:49:22.634Z,1013.76
2019-02-10T10:52:52.703Z,1015.56
2019-02-10T10:56:22.853Z,1017.52
2019-02-10T10:59:52.970Z,1020.22
2019-02-10T11:03:23.128Z,1021.04
2019-02-10T11:06:53.287Z,1020.58
2019-02-10T11:10:23.395Z,1020.61
2019-02-10T11:13:53.495Z,1021.81
2019-02-10T11:17:23.642Z,1022.67
2019-02-10T11:20:53.720Z,1022.7
2019-02-10T11:24:28.557Z,1023.32
2019-02-10T11:27:59.126Z,1023.62
2019-02-10T11:31:29.219Z,1026.12
2019-02-10T11:34:59.364Z,1026.19
2019-02-10T11:38:30.493Z,1027.29
2019-02-10T11:42:00.600Z,1028.32
2019-02-10T11:45:30.729Z,1029.38
2019-02-10T11:49:00.877Z,1028.85
2019-02-10T11:52:31.049Z,1029.61
2019-02-10T11:56:01.294Z,1030.17
2019-02-10T11:59:31.393Z,1031.94
2019-02-10T12:00:16.362Z,1032.08
2019-02-10T12:03:46.461Z,1032.92
2019-02-10T12:07:16.631Z,1032.02
2019-02-10T12:10:46.787Z,1030.94
2019-02-10T12:14:16.816Z,1031.04
2019-02-10T12:17:47.016Z,1033.37
2019-02-10T12:21:17.103Z,1034.59
2019-02-10T12:24:47.233Z,1034.27
2019-02-10T12:28:17.323Z,1033.32
2019-02-10T12:31:47.469Z,1032.76
2019-02-10T12:35:17.790Z,1032.7
2019-02-10T12:38:48.026Z,1032.29
2019-02-10T12:42:18.076Z,1032.47
2019-02-10T12:45:48.195Z,1030.11
2019-02-10T12:49:18.452Z,1031.04
2019-02-10T12:52:48.600Z,1031.8
2019-02-10T12:56:18.669Z,1030.64
2019-02-10T12:59:48.707Z,1030.6
2019-02-10T13:03:18.806Z,1029.64
2019-02-10T13:06:49.004Z,1027.48
2019-02-10T13:10:19.133Z,1026.47
2019-02-10T13:13:49.271Z,1025.94
2019-02-10T13:17:19.344Z,1024.62
2019-02-10T13:20:49.445Z,1023.71
2019-02-10T13:24:19.647Z,1022.5
2019-02-10T13:27:49.916Z,1022.07
2019-02-10T13:31:20.044Z,1022.06
2019-02-10T13:34:50.111Z,1020.31
2019-02-10T13:38:20.240Z,1018.25
2019-02-10T13:41:59.978Z,1016.12
2019-02-10T13:45:30.108Z,1015.09
2019-02-10T13:49:00.277Z,1015.85
2019-02-10T13:52:30.323Z,1015.71
2019-02-10T13:56:00.482Z,1014.56
2019-02-10T13:59:30.542Z,1013.95
2019-02-10T14:00:16.893Z,1013.94
2019-02-10T14:03:46.929Z,1014.55
2019-02-10T14:07:17.101Z,1014.6
2019-02-10T14:10:55.331Z,1016.18
2019-02-10T14:14:25.425Z,1016.79
2019-02-10T14:17:55.469Z,1017.25
2019-02-10T14:21:25.563Z,1016.08
2019-02-10T14:24:55.765Z,1014.8
2019-02-10T14:28:25.944Z,1014.48
2019-02-10T14:31:56.074Z,1013.34
2019-02-10T14:35:26.226Z,1012.2
2019-02-10T14:38:56.433Z,1012.04
2019-02-10T14:42:27.485Z,1011.19
2019-02-10T14:45:57.644Z,1010.72
2019-02-10T14:49:27.783Z,1010.13
2019-02-10T14:52:57.892Z,1009.97
2019-02-10T14:56:28.043Z,1009.32
2019-02-10T14:59:58.200Z,1008.73
2019-02-10T15:03:28.225Z,1009.33
2019-02-10T15:06:58.540Z,1008.76
2019-02-10T15:10:28.629Z,1008.22
2019-02-10T15:13:58.778Z,1007.58
2019-02-10T15:17:29.843Z,1006.41
2019-02-10T15:21:00.120Z,1005.94
2019-02-10T15:24:30.225Z,1005.64
2019-02-10T15:28:00.366Z,1005.41
2019-02-10T15:31:30.415Z,1004.79
2019-02-10T15:35:00.524Z,1004.29
2019-02-10T15:38:30.733Z,1003.78
2019-02-10T15:42:08.985Z,1003.2
2019-02-10T15:45:39.462Z,1002.22
2019-02-10T15:49:09.481Z,1001.65
2019-02-10T15:52:39.610Z,1000.88
2019-02-10T15:56:09.769Z,1000.19
2019-02-10T15:59:39.838Z,999.51
2019-02-10T16:00:18.787Z,999.44
2019-02-10T16:03:48.958Z,999.39
2019-02-10T16:07:19.138Z,999.08
2019-02-10T16:10:49.197Z,998.34
2019-02-10T16:14:19.236Z,998.02
2019-02-10T16:17:49.343Z,997.61
2019-02-10T16:21:19.453Z,997.21
2019-02-10T16:24:49.585Z,996.76
2019-02-10T16:28:19.692Z,996.47
2019-02-10T16:31:49.872Z,996.42
2019-02-10T16:35:19.921Z,996.34
2019-02-10T16:38:49.969Z,996.61
2019-02-10T16:42:20.169Z,995.99
2019-02-10T16:45:51.289Z,995.8
2019-02-10T16:49:21.418Z,995.37
2019-02-10T16:52:51.527Z,995.02
2019-02-10T16:56:21.717Z,994.52
2019-02-10T16:59:51.834Z,994.19
2019-02-10T17:03:21.884Z,994.2
2019-02-10T17:06:52.143Z,993.91
2019-02-10T17:10:22.161Z,993.91
2019-02-10T17:13:52.347Z,994.2
2019-02-10T17:17:22.414Z,994.4
2019-02-10T17:20:52.499Z,994.17
2019-02-10T17:24:22.520Z,994.51
2019-02-10T17:27:52.631Z,994.53
2019-02-10T17:31:22.806Z,993.99
2019-02-10T17:34:52.987Z,994.19
2019-02-10T17:38:23.066Z,994.55
2019-02-10T17:41:53.276Z,994.86
2019-02-10T17:45:23.453Z,994.88
2019-02-10T17:48:54.663Z,994.68
2019-02-10T17:52:31.861Z,994.47
2019-02-10T17:56:02.462Z,994.23
2019-02-10T17:59:32.471Z,994.04
2019-02-10T18:00:16.850Z,993.96
2019-02-10T18:03:46.858Z,993.98
2019-02-10T18:07:16.949Z,994.1
2019-02-10T18:10:47.136Z,994.12
2019-02-10T18:16:46.367Z,994.24
2019-02-10T18:20:25.995Z,994.32
2019-02-10T18:24:21.223Z,994.27
2019-02-10T18:30:20.253Z,994.43
2019-02-10T18:34:07.421Z,994.61
2019-02-10T18:37:44.293Z,994.45
2019-02-10T18:41:23.131Z,994.41
2019-02-10T18:45:31.489Z,994.44
2019-02-10T18:49:14.678Z,994.5
2019-02-10T18:52:53.080Z,994.39
2019-02-10T18:56:37.827Z,994.45
2019-02-10T19:02:39.367Z,994.16
2019-02-10T19:06:46.994Z,993.89
2019-02-10T19:10:24.784Z,993.87
2019-02-10T19:14:20.982Z,993.59
2019-02-10T19:18:13.480Z,993.45
2019-02-10T19:21:55.361Z,993.54
2019-02-10T19:26:36.919Z,993.47
2019-02-10T19:30:19.097Z,992.97
2019-02-10T19:34:05.888Z,992.9
2019-02-10T19:37:46.466Z,992.57
2019-02-10T19:41:29.267Z,992.86
2019-02-10T19:49:49.414Z,993.06
2019-02-10T19:53:33.742Z,992.99
2019-02-10T19:57:26.085Z,993.27
2019-02-10T20:00:28.712Z,992.84
2019-02-10T20:04:39.041Z,992.75
2019-02-10T20:08:19.278Z,992.37
2019-02-10T20:14:52.026Z,992.07
2019-02-10T20:18:32.768Z,992.06
2019-02-10T20:22:42.916Z,992.4
2019-02-10T20:29:10.865Z,992.93
2019-02-10T20:33:03.534Z,992.97
2019-02-10T20:36:44.502Z,993.1
2019-02-10T20:42:46.830Z,993.08
2019-02-10T20:46:29.209Z,992.95
2019-02-10T20:52:27.077Z,993.01
2019-02-10T20:56:03.077Z,992.91
2019-02-10T20:59:41.312Z,992.59
2019-02-10T21:06:01.737Z,993.28
2019-02-10T21:09:49.694Z,993.33
2019-02-10T21:18:13.029Z,993.1
2019-02-10T21:21:50.003Z,992.92
2019-02-10T21:26:35.201Z,992.98
2019-02-10T21:30:13.538Z,993.11
2019-02-10T21:33:51.537Z,993.47
2019-02-10T21:38:33.317Z,993.76
2019-02-10T21:42:10.106Z,993.22
2019-02-10T21:45:46.264Z,993.32
2019-02-10T21:49:18.393Z,993.01
2019-02-10T21:52:48.624Z,993.34
2019-02-10T21:56:18.813Z,993.64
2019-02-10T21:59:48.842Z,993.42
2019-02-10T22:00:16.951Z,993.31
2019-02-10T22:03:47.100Z,993.35
2019-02-10T22:07:17.614Z,993.3
2019-02-10T22:10:47.690Z,993.59
2019-02-10T22:14:17.731Z,993.16
2019-02-10T22:17:47.888Z,993.01
2019-02-10T22:21:18.127Z,993.31
2019-02-10T22:24:48.325Z,993.31
2019-02-10T22:28:18.626Z,993.54
2019-02-10T22:31:48.743Z,993.38
2019-02-10T22:35:18.782Z,993.41
2019-02-10T22:38:48.869Z,993.39
2019-02-10T22:42:18.991Z,993.37
2019-02-10T22:45:49.030Z,993.33
2019-02-10T22:49:19.189Z,993.51
2019-02-10T22:52:50.229Z,993.6
2019-02-10T22:56:20.442Z,993.58
2019-02-10T22:59:50.496Z,993.7
2019-02-10T23:03:20.765Z,993.55
2019-02-10T23:06:50.926Z,993.37
2019-02-10T23:10:21.054Z,993.57
2019-02-10T23:13:51.123Z,993.44
2019-02-10T23:17:21.262Z,993.28
2019-02-10T23:20:51.332Z,993.21
2019-02-10T23:24:21.382Z,993.11
2019-02-10T23:27:51.700Z,992.82
2019-02-10T23:31:21.718Z,992.4
2019-02-10T23:34:51.809Z,992.29
2019-02-10T23:38:22.008Z,992.3
2019-02-10T23:41:52.197Z,992.61
2019-02-10T23:45:22.246Z,993.02
2019-02-10T23:48:52.346Z,993.56
2019-02-10T23:52:22.373Z,994.16
2019-02-10T23:55:53.396Z,994.37
2019-02-10T23:59:23.476Z,994.16
